createdAt,value
2022-08-17T00:00:42.699Z,86.20
2022-08-17T00:03:10.235Z,86.80
2022-08-17T00:05:43.670Z,86.80
2022-08-17T00:08:13.001Z,86.80
2022-08-17T00:10:41.832Z,87.20
2022-08-17T00:13:11.597Z,87.50
2022-08-17T00:15:40.476Z,87.50
2022-08-17T00:19:06.395Z,88.00
2022-08-17T00:20:59.879Z,88.30
2022-08-17T00:23:28.984Z,88.90
2022-08-17T00:25:57.215Z,89.80
2022-08-17T00:28:25.602Z,90.20
2022-08-17T00:30:54.834Z,90.30
2022-08-17T00:33:26.224Z,90.50
2022-08-17T00:35:54.986Z,90.60
2022-08-17T00:38:25.984Z,90.80
2022-08-17T00:40:59.167Z,91.00
2022-08-17T00:43:30.961Z,91.20
2022-08-17T00:46:00.358Z,91.30
2022-08-17T00:48:30.606Z,91.50
2022-08-17T00:51:04.232Z,91.40
2022-08-17T00:53:37.693Z,91.50
2022-08-17T00:56:08.529Z,92.10
2022-08-17T00:58:37.425Z,91.90
2022-08-17T01:01:07.943Z,92.10
2022-08-17T01:03:38.626Z,92.20
2022-08-17T01:06:09.166Z,92.30
2022-08-17T01:08:40.708Z,92.50
2022-08-17T01:11:09.718Z,92.70
2022-08-17T01:13:41.804Z,92.80
2022-08-17T01:16:17.305Z,93.00
2022-08-17T01:18:47.216Z,93.10
2022-08-17T01:21:22.033Z,93.20
2022-08-17T01:23:52.101Z,93.30
2022-08-17T01:26:21.197Z,93.50
2022-08-17T01:28:53.901Z,93.60
2022-08-17T01:31:25.429Z,93.60
2022-08-17T01:33:53.674Z,93.80
2022-08-17T01:36:22.695Z,93.90
2022-08-17T01:38:52.633Z,94.00
2022-08-17T01:41:25.215Z,93.90
2022-08-17T01:44:00.217Z,94.00
2022-08-17T01:46:32.170Z,93.80
2022-08-17T01:49:01.577Z,93.70
2022-08-17T01:51:33.084Z,93.80
2022-08-17T01:54:06.552Z,93.90
2022-08-17T01:56:36.474Z,93.80
2022-08-17T01:59:05.331Z,93.70
2022-08-17T02:01:35.826Z,94.00
2022-08-17T02:04:05.099Z,94.00
2022-08-17T02:06:52.522Z,94.00
2022-08-17T02:09:25.567Z,93.90
2022-08-17T02:11:54.620Z,93.80
2022-08-17T02:14:23.761Z,94.00
2022-08-17T02:16:52.182Z,94.00
2022-08-17T02:19:20.847Z,93.90
2022-08-17T02:21:51.377Z,94.10
2022-08-17T02:24:58.722Z,94.30
2022-08-17T02:27:13.656Z,94.60
2022-08-17T02:29:44.573Z,94.40
2022-08-17T02:32:27.980Z,94.20
2022-08-17T02:34:57.496Z,94.30
2022-08-17T02:37:25.928Z,94.70
2022-08-17T02:39:57.238Z,95.30
2022-08-17T02:42:29.321Z,95.70
2022-08-17T02:44:57.515Z,95.80
2022-08-17T02:47:25.906Z,96.00
2022-08-17T02:49:55.819Z,96.10
2022-08-17T02:52:42.959Z,96.40
2022-08-17T02:55:15.927Z,96.70
2022-08-17T02:57:44.696Z,97.00
2022-08-17T03:00:16.437Z,97.20
2022-08-17T03:02:45.753Z,98.00
2022-08-17T03:05:17.037Z,97.90
2022-08-17T03:07:45.680Z,98.10
2022-08-17T03:10:16.703Z,98.30
2022-08-17T03:12:46.438Z,98.60
2022-08-17T03:15:17.589Z,99.00
2022-08-17T03:17:46.599Z,99.10
2022-08-17T03:20:16.255Z,99.10
2022-08-17T03:22:48.000Z,99.20
2022-08-17T03:25:26.802Z,99.60
2022-08-17T03:27:55.849Z,99.90
2022-08-17T03:30:25.198Z,99.90
2022-08-17T03:32:56.113Z,99.90
2022-08-17T03:35:27.263Z,99.90
2022-08-17T03:38:00.234Z,99.90
2022-08-17T03:40:55.172Z,99.90
2022-08-17T03:43:21.234Z,99.90
2022-08-17T03:46:11.003Z,99.90
2022-08-17T03:49:12.734Z,99.90
2022-08-17T03:51:58.252Z,99.90
2022-08-17T03:54:43.608Z,99.90
2022-08-17T03:57:13.602Z,99.90
2022-08-17T03:59:42.048Z,99.90
2022-08-17T04:02:14.737Z,99.90
2022-08-17T04:04:42.961Z,99.90
2022-08-17T04:07:11.319Z,99.90
2022-08-17T04:09:39.600Z,99.90
2022-08-17T04:12:08.046Z,99.90
2022-08-17T04:14:51.822Z,99.90
2022-08-17T04:17:22.568Z,99.90
2022-08-17T04:19:50.792Z,99.90
2022-08-17T04:22:33.234Z,99.90
2022-08-17T04:25:07.894Z,99.90
2022-08-17T04:27:36.085Z,99.90
2022-08-17T04:30:08.260Z,99.90
2022-08-17T04:33:03.605Z,99.90
2022-08-17T04:35:38.851Z,99.90
2022-08-17T04:38:07.864Z,99.90
2022-08-17T04:40:53.221Z,99.90
2022-08-17T04:43:23.574Z,99.90
2022-08-17T04:45:56.845Z,99.90
2022-08-17T04:48:34.715Z,99.90
2022-08-17T04:51:07.454Z,99.90
2022-08-17T04:53:35.799Z,99.90
2022-08-17T04:56:04.192Z,99.90
2022-08-17T04:58:32.568Z,99.90
2022-08-17T05:01:02.670Z,99.90
2022-08-17T05:03:31.288Z,99.90
2022-08-17T05:05:59.553Z,99.90
2022-08-17T05:08:27.741Z,99.90
2022-08-17T05:10:56.013Z,99.90
2022-08-17T05:13:25.713Z,99.90
2022-08-17T05:15:56.864Z,99.90
2022-08-17T05:18:27.281Z,99.90
2022-08-17T05:20:56.222Z,99.90
2022-08-17T05:23:27.140Z,99.90
2022-08-17T05:26:11.782Z,99.90
2022-08-17T05:28:54.140Z,99.90
2022-08-17T05:31:22.625Z,99.90
2022-08-17T05:33:52.474Z,99.90
2022-08-17T05:36:43.349Z,99.90
2022-08-17T05:39:08.859Z,99.90
2022-08-17T05:41:43.965Z,99.90
2022-08-17T05:44:12.290Z,99.90
2022-08-17T05:46:45.424Z,99.90
2022-08-17T05:49:17.370Z,99.90
2022-08-17T05:52:14.953Z,99.90
2022-08-17T05:54:58.314Z,99.90
2022-08-17T05:57:43.585Z,99.90
2022-08-17T06:00:20.257Z,99.90
2022-08-17T06:03:01.771Z,99.90
2022-08-17T06:05:45.236Z,99.90
2022-08-17T06:08:22.068Z,99.90
2022-08-17T06:10:59.445Z,99.90
2022-08-17T06:13:40.007Z,99.90
2022-08-17T06:16:33.376Z,99.90
2022-08-17T06:19:03.332Z,99.90
2022-08-17T06:21:38.953Z,99.90
2022-08-17T06:24:14.921Z,99.90
2022-08-17T06:26:45.569Z,99.90
2022-08-17T06:29:21.370Z,99.90
2022-08-17T06:31:50.112Z,99.90
2022-08-17T06:34:19.470Z,99.90
2022-08-17T06:36:58.140Z,99.90
2022-08-17T06:39:44.706Z,99.90
2022-08-17T06:42:54.910Z,99.90
2022-08-17T06:45:13.117Z,99.90
2022-08-17T06:47:48.362Z,99.90
2022-08-17T06:50:21.076Z,99.90
2022-08-17T06:52:57.398Z,99.90
2022-08-17T06:55:35.800Z,99.90
2022-08-17T06:58:15.758Z,99.90
2022-08-17T07:00:47.677Z,99.90
2022-08-17T07:03:27.582Z,99.90
2022-08-17T07:06:00.103Z,99.90
2022-08-17T07:08:37.972Z,99.80
2022-08-17T07:11:11.057Z,99.10
2022-08-17T07:13:51.304Z,99.40
2022-08-17T07:16:24.821Z,99.20
2022-08-17T07:18:55.328Z,99.20
2022-08-17T07:21:41.548Z,99.40
2022-08-17T07:24:29.976Z,99.70
2022-08-17T07:27:12.581Z,99.20
2022-08-17T07:29:44.172Z,98.40
2022-08-17T07:32:18.421Z,98.20
2022-08-17T07:35:15.334Z,98.00
2022-08-17T07:37:45.989Z,97.10
2022-08-17T07:40:22.282Z,96.70
2022-08-17T07:43:11.434Z,96.10
2022-08-17T07:46:15.430Z,95.40
2022-08-17T07:48:48.602Z,94.40
2022-08-17T07:51:27.037Z,93.40
2022-08-17T07:54:13.154Z,92.90
2022-08-17T07:56:47.922Z,92.60
2022-08-17T07:59:23.746Z,92.00
2022-08-17T08:02:06.092Z,90.80
2022-08-17T08:07:31.977Z,88.20
2022-08-17T08:10:08.847Z,85.90
2022-08-17T08:12:40.710Z,84.50
2022-08-17T08:15:18.881Z,84.10
2022-08-17T08:17:53.106Z,80.20
2022-08-17T08:20:51.884Z,77.70
2022-08-17T08:23:30.666Z,76.50
2022-08-17T08:26:18.421Z,74.20
2022-08-17T08:28:59.224Z,71.20
2022-08-17T08:31:42.067Z,69.90
2022-08-17T08:34:44.977Z,68.00
2022-08-17T08:37:30.368Z,66.50
2022-08-17T08:40:11.096Z,65.80
2022-08-17T08:42:47.069Z,63.10
2022-08-17T08:45:23.812Z,61.40
2022-08-17T08:48:46.124Z,61.70
2022-08-17T08:51:11.413Z,61.20
2022-08-17T08:53:48.598Z,59.70
2022-08-17T08:56:25.977Z,58.60
2022-08-17T08:59:02.663Z,59.00
2022-08-17T09:01:38.529Z,59.70
2022-08-17T09:04:25.846Z,58.10
2022-08-17T09:07:05.893Z,58.20
2022-08-17T09:09:42.297Z,56.80
2022-08-17T09:12:18.721Z,56.00
2022-08-17T09:14:57.809Z,54.90
2022-08-17T09:17:40.099Z,54.30
2022-08-17T09:20:27.884Z,54.70
2022-08-17T09:23:01.085Z,54.40
2022-08-17T09:25:36.238Z,54.40
2022-08-17T09:28:08.725Z,54.30
2022-08-17T09:30:45.499Z,53.30
2022-08-17T09:33:19.634Z,53.60
2022-08-17T09:35:54.847Z,52.10
2022-08-17T09:38:32.183Z,52.40
2022-08-17T09:41:10.054Z,51.50
2022-08-17T09:43:44.844Z,50.90
2022-08-17T09:46:19.737Z,51.00
2022-08-17T09:48:56.458Z,49.80
2022-08-17T09:51:33.579Z,50.90
2022-08-17T09:54:34.997Z,49.20
2022-08-17T09:57:27.931Z,49.40
2022-08-17T10:00:01.381Z,48.40
2022-08-17T10:02:44.065Z,47.20
2022-08-17T10:05:19.132Z,48.30
2022-08-17T10:07:54.165Z,48.80
2022-08-17T10:10:26.757Z,48.30
2022-08-17T10:12:59.969Z,46.20
2022-08-17T10:15:42.478Z,46.30
2022-08-17T10:18:35.305Z,44.40
2022-08-17T10:21:26.888Z,44.20
2022-08-17T10:24:21.965Z,43.70
2022-08-17T10:26:56.864Z,44.70
2022-08-17T10:29:30.471Z,44.60
2022-08-17T10:32:25.389Z,44.60
2022-08-17T10:35:35.119Z,45.30
2022-08-17T10:38:38.927Z,46.40
2022-08-17T10:41:24.109Z,45.90
2022-08-17T10:44:37.004Z,46.70
2022-08-17T10:47:02.328Z,47.00
2022-08-17T10:49:34.027Z,46.50
2022-08-17T10:52:05.156Z,45.90
2022-08-17T10:54:46.744Z,45.30
2022-08-17T10:57:43.776Z,45.80
2022-08-17T11:00:57.830Z,45.90
2022-08-17T11:03:27.654Z,45.10
2022-08-17T11:06:12.677Z,45.10
2022-08-17T11:09:08.883Z,45.30
2022-08-17T11:11:51.052Z,45.50
2022-08-17T11:14:35.505Z,44.70
2022-08-17T11:17:15.508Z,44.70
2022-08-17T11:20:14.214Z,43.40
2022-08-17T11:23:17.152Z,44.00
2022-08-17T11:25:49.633Z,43.90
2022-08-17T11:28:23.243Z,42.30
2022-08-17T11:30:54.884Z,43.90
2022-08-17T11:33:53.870Z,42.50
2022-08-17T11:36:47.153Z,41.70
2022-08-17T11:39:34.063Z,42.40
2022-08-17T11:42:07.163Z,43.80
2022-08-17T11:44:52.444Z,41.80
2022-08-17T11:48:02.470Z,42.00
2022-08-17T11:51:05.969Z,42.20
2022-08-17T11:54:30.515Z,42.00
2022-08-17T11:56:50.242Z,41.50
2022-08-17T11:59:59.100Z,41.70
2022-08-17T12:02:47.474Z,41.30
2022-08-17T12:05:34.180Z,40.40
2022-08-17T12:08:15.474Z,39.60
2022-08-17T12:11:00.672Z,39.70
2022-08-17T12:13:38.772Z,38.70
2022-08-17T12:16:14.581Z,41.00
2022-08-17T12:18:51.173Z,40.00
2022-08-17T12:21:28.992Z,40.50
2022-08-17T12:24:06.516Z,39.90
2022-08-17T12:26:36.902Z,38.90
2022-08-17T12:29:09.430Z,38.50
2022-08-17T12:31:50.337Z,38.70
2022-08-17T12:34:21.264Z,38.70
2022-08-17T12:36:52.050Z,39.70
2022-08-17T12:39:25.034Z,40.10
2022-08-17T12:42:01.980Z,38.90
2022-08-17T12:44:32.603Z,40.30
2022-08-17T12:47:07.028Z,39.80
2022-08-17T12:49:36.992Z,39.90
2022-08-17T12:52:12.308Z,39.80
2022-08-17T12:54:47.949Z,39.40
2022-08-17T12:57:23.068Z,38.90
2022-08-17T12:59:55.340Z,39.20
2022-08-17T13:02:42.645Z,40.40
2022-08-17T13:05:19.147Z,39.80
2022-08-17T13:07:47.940Z,38.80
2022-08-17T13:10:22.877Z,39.40
2022-08-17T13:12:52.447Z,38.60
2022-08-17T13:15:29.623Z,40.20
2022-08-17T13:18:08.841Z,40.60
2022-08-17T13:20:38.340Z,39.50
2022-08-17T13:23:12.638Z,40.10
2022-08-17T13:25:41.297Z,39.30
2022-08-17T13:28:35.772Z,39.60
2022-08-17T13:31:26.333Z,40.50
2022-08-17T13:34:13.895Z,41.30
2022-08-17T13:36:44.502Z,39.60
2022-08-17T13:39:19.085Z,41.90
2022-08-17T13:41:49.712Z,41.30
2022-08-17T13:44:36.658Z,40.80
2022-08-17T13:47:07.414Z,40.60
2022-08-17T13:49:48.317Z,41.20
2022-08-17T13:52:36.432Z,41.20
2022-08-17T13:55:09.944Z,41.90
2022-08-17T13:57:38.504Z,40.30
2022-08-17T14:00:19.548Z,40.90
2022-08-17T14:02:47.663Z,40.40
2022-08-17T14:05:17.658Z,41.50
2022-08-17T14:07:45.899Z,41.40
2022-08-17T14:10:17.412Z,41.90
2022-08-17T14:12:46.784Z,42.00
2022-08-17T14:15:17.852Z,40.90
2022-08-17T14:17:46.339Z,41.50
2022-08-17T14:20:18.235Z,41.00
2022-08-17T14:22:51.288Z,41.30
2022-08-17T14:25:22.464Z,41.80
2022-08-17T14:27:53.663Z,41.90
2022-08-17T14:30:25.008Z,42.00
2022-08-17T14:32:54.324Z,42.00
2022-08-17T14:35:25.249Z,42.10
2022-08-17T14:37:54.314Z,42.50
2022-08-17T14:40:24.703Z,43.10
2022-08-17T14:42:55.300Z,42.60
2022-08-17T14:45:32.324Z,43.20
2022-08-17T14:48:04.266Z,42.50
2022-08-17T14:50:35.283Z,43.00
2022-08-17T14:53:05.240Z,42.80
2022-08-17T14:55:33.718Z,43.50
2022-08-17T14:58:01.977Z,43.20
2022-08-17T15:00:30.096Z,43.20
2022-08-17T15:03:00.429Z,43.70
2022-08-17T15:05:31.753Z,43.30
2022-08-17T15:08:02.466Z,44.10
2022-08-17T15:10:31.655Z,43.60
2022-08-17T15:13:00.482Z,44.40
2022-08-17T15:15:29.582Z,44.80
2022-08-17T15:17:58.309Z,45.20
2022-08-17T15:20:30.351Z,45.10
2022-08-17T15:22:59.546Z,44.20
2022-08-17T15:25:31.890Z,44.40
2022-08-17T15:28:01.488Z,44.40
2022-08-17T15:30:30.076Z,45.70
2022-08-17T15:32:59.276Z,45.80
2022-08-17T15:35:31.395Z,45.90
2022-08-17T15:38:07.984Z,45.70
2022-08-17T15:40:42.743Z,45.70
2022-08-17T15:43:13.481Z,46.20
2022-08-17T15:45:41.973Z,46.30
2022-08-17T15:48:10.578Z,46.20
2022-08-17T15:50:39.052Z,46.70
2022-08-17T15:53:07.310Z,46.60
2022-08-17T15:55:36.731Z,47.20
2022-08-17T15:58:07.043Z,46.80
2022-08-17T16:00:44.135Z,46.70
2022-08-17T16:03:46.869Z,46.80
2022-08-17T16:06:09.799Z,47.50
2022-08-17T16:08:41.796Z,47.60
2022-08-17T16:11:11.241Z,47.00
2022-08-17T16:13:41.672Z,46.80
2022-08-17T16:16:16.304Z,46.90
2022-08-17T16:18:44.893Z,46.60
2022-08-17T16:21:42.786Z,46.40
2022-08-17T16:24:13.435Z,47.10
2022-08-17T16:26:42.001Z,46.60
2022-08-17T16:29:11.810Z,46.50
2022-08-17T16:31:40.153Z,47.30
2022-08-17T16:34:16.986Z,46.70
2022-08-17T16:36:53.767Z,46.80
2022-08-17T16:39:24.366Z,47.30
2022-08-17T16:41:52.656Z,47.80
2022-08-17T16:44:23.190Z,48.00
2022-08-17T16:46:51.613Z,47.70
2022-08-17T16:49:27.617Z,47.80
2022-08-17T16:52:10.074Z,47.80
2022-08-17T16:54:40.650Z,48.50
2022-08-17T16:57:08.843Z,48.60
2022-08-17T16:59:41.118Z,48.80
2022-08-17T17:02:15.303Z,49.20
2022-08-17T17:04:51.360Z,49.30
2022-08-17T17:07:37.502Z,48.90
2022-08-17T17:10:10.139Z,48.50
2022-08-17T17:13:01.629Z,49.10
2022-08-17T17:15:41.531Z,48.90
2022-08-17T17:18:14.867Z,49.70
2022-08-17T17:20:50.793Z,50.00
2022-08-17T17:23:43.159Z,50.30
2022-08-17T17:26:25.137Z,49.60
2022-08-17T17:29:18.306Z,50.20
2022-08-17T17:32:05.806Z,50.80
2022-08-17T17:34:35.119Z,49.90
2022-08-17T17:37:08.767Z,50.70
2022-08-17T17:39:43.769Z,50.50
2022-08-17T17:42:19.914Z,51.10
2022-08-17T17:44:52.393Z,50.90
2022-08-17T17:47:22.766Z,50.70
2022-08-17T17:49:51.045Z,51.40
2022-08-17T17:52:27.301Z,50.90
2022-08-17T17:55:07.537Z,52.00
2022-08-17T17:57:48.197Z,51.80
2022-08-17T18:00:21.985Z,52.70
2022-08-17T18:03:14.692Z,53.50
2022-08-17T18:06:18.643Z,52.50
2022-08-17T18:09:03.295Z,52.70
2022-08-17T18:11:59.669Z,51.80
2022-08-17T18:14:42.410Z,53.00
2022-08-17T18:17:10.740Z,52.10
2022-08-17T18:19:41.521Z,52.40
2022-08-17T18:22:14.159Z,52.70
2022-08-17T18:24:45.838Z,53.10
2022-08-17T18:27:24.462Z,52.90
2022-08-17T18:29:54.577Z,53.70
2022-08-17T18:32:29.387Z,53.70
2022-08-17T18:35:01.779Z,53.40
2022-08-17T18:37:37.881Z,53.50
2022-08-17T18:40:30.062Z,53.90
2022-08-17T18:43:11.976Z,54.10
2022-08-17T18:45:45.452Z,54.40
2022-08-17T18:48:26.135Z,54.70
2022-08-17T18:50:58.257Z,55.30
2022-08-17T18:53:39.180Z,55.30
2022-08-17T18:56:25.705Z,55.70
2022-08-17T18:59:14.045Z,56.10
2022-08-17T19:01:53.724Z,56.50
2022-08-17T19:04:34.856Z,56.40
2022-08-17T19:07:08.186Z,56.50
2022-08-17T19:09:40.050Z,57.20
2022-08-17T19:12:15.291Z,56.90
2022-08-17T19:14:44.781Z,57.00
2022-08-17T19:17:20.577Z,57.40
2022-08-17T19:19:55.696Z,58.20
2022-08-17T19:22:32.907Z,57.90
2022-08-17T19:25:10.620Z,57.80
2022-08-17T19:27:50.008Z,57.50
2022-08-17T19:30:21.185Z,58.00
2022-08-17T19:32:50.544Z,57.80
2022-08-17T19:35:20.389Z,58.10
2022-08-17T19:38:00.910Z,58.00
2022-08-17T19:43:29.033Z,59.50
2022-08-17T19:46:08.792Z,59.90
2022-08-17T19:48:46.802Z,59.80
2022-08-17T19:51:20.826Z,60.10
2022-08-17T19:54:07.141Z,60.40
2022-08-17T19:56:54.555Z,60.50
2022-08-17T19:59:36.370Z,60.80
2022-08-17T20:02:16.481Z,60.80
2022-08-17T20:04:48.144Z,60.70
2022-08-17T20:07:20.291Z,60.70
2022-08-17T20:09:55.662Z,60.90
2022-08-17T20:12:28.501Z,60.90
2022-08-17T20:15:00.422Z,60.70
2022-08-17T20:17:33.525Z,61.20
2022-08-17T20:20:19.983Z,61.70
2022-08-17T20:22:55.415Z,61.50
2022-08-17T20:25:32.132Z,62.10
2022-08-17T20:28:05.984Z,62.30
2022-08-17T20:30:39.103Z,61.40
2022-08-17T20:33:08.996Z,61.90
2022-08-17T20:36:00.677Z,62.10
2022-08-17T20:38:42.260Z,62.40
2022-08-17T20:41:17.265Z,62.40
2022-08-17T20:44:04.696Z,61.80
2022-08-17T20:46:58.042Z,62.10
2022-08-17T20:49:35.479Z,61.90
2022-08-17T20:52:08.781Z,62.00
2022-08-17T20:54:47.685Z,62.60
2022-08-17T20:57:49.088Z,62.70
2022-08-17T21:00:46.644Z,62.90
2022-08-17T21:03:51.322Z,63.20
2022-08-17T21:06:25.841Z,64.70
2022-08-17T21:08:59.985Z,64.60
2022-08-17T21:12:03.404Z,63.60
2022-08-17T21:14:56.484Z,62.40
2022-08-17T21:17:44.741Z,63.10
2022-08-17T21:20:32.298Z,63.70
2022-08-17T21:23:18.589Z,63.70
2022-08-17T21:26:05.618Z,63.90
2022-08-17T21:29:00.053Z,63.80
2022-08-17T21:31:35.178Z,65.60
2022-08-17T21:34:29.842Z,65.70
2022-08-17T21:37:40.058Z,66.40
2022-08-17T21:40:24.671Z,66.80
2022-08-17T21:42:58.274Z,66.20
2022-08-17T21:45:31.875Z,66.20
2022-08-17T21:48:13.485Z,66.10
2022-08-17T21:50:44.168Z,66.10
2022-08-17T21:53:25.416Z,66.60
2022-08-17T21:55:55.452Z,65.90
2022-08-17T21:58:31.390Z,65.60
2022-08-17T22:01:25.025Z,65.80
2022-08-17T22:04:00.872Z,66.00
2022-08-17T22:06:35.829Z,66.20
2022-08-17T22:09:14.136Z,66.10
2022-08-17T22:12:00.984Z,66.20
2022-08-17T22:14:52.848Z,66.60
2022-08-17T22:17:23.749Z,67.10
2022-08-17T22:19:54.782Z,68.00
2022-08-17T22:22:28.236Z,67.10
2022-08-17T22:25:00.493Z,67.80
2022-08-17T22:27:48.032Z,67.30
2022-08-17T22:30:32.356Z,67.10
2022-08-17T22:33:01.987Z,66.70
2022-08-17T22:35:41.932Z,66.60
2022-08-17T22:38:32.805Z,66.50
2022-08-17T22:41:32.159Z,67.80
2022-08-17T22:44:07.924Z,67.90
2022-08-17T22:46:42.613Z,68.60
2022-08-17T22:49:11.073Z,69.30
2022-08-17T22:51:43.952Z,70.10
2022-08-17T22:54:36.356Z,70.10
2022-08-17T22:57:30.925Z,70.80
2022-08-17T23:00:01.241Z,71.50
2022-08-17T23:02:31.602Z,72.20
2022-08-17T23:05:21.664Z,72.60
2022-08-17T23:07:53.286Z,72.70
2022-08-17T23:10:21.931Z,72.70
2022-08-17T23:12:51.717Z,73.00
2022-08-17T23:15:20.632Z,72.60
2022-08-17T23:17:49.082Z,72.40
2022-08-17T23:20:18.016Z,70.10
2022-08-17T23:22:51.973Z,70.00
2022-08-17T23:25:28.001Z,70.00
2022-08-17T23:28:01.758Z,70.80
2022-08-17T23:30:31.269Z,71.80
2022-08-17T23:33:01.364Z,72.00
2022-08-17T23:35:40.278Z,71.00
2022-08-17T23:38:10.112Z,70.50
2022-08-17T23:40:39.490Z,70.80
2022-08-17T23:43:23.646Z,70.80
2022-08-17T23:45:53.498Z,70.60
2022-08-17T23:48:32.508Z,71.20
2022-08-17T23:51:09.769Z,71.00
2022-08-17T23:53:40.670Z,71.30
2022-08-17T23:56:11.132Z,70.90
2022-08-17T23:58:43.230Z,71.20
